createdAt,value
2018-10-05T00:02:10.439Z,10.47
2018-10-05T00:04:38.965Z,10.37
2018-10-05T00:07:07.768Z,10.34
2018-10-05T00:09:36.651Z,10.32
2018-10-05T00:12:06.129Z,10.20
2018-10-05T00:14:35.646Z,10.08
2018-10-05T00:17:05.812Z,10.02
2018-10-05T00:19:34.373Z,9.92
2018-10-05T00:22:04.463Z,9.82
2018-10-05T00:24:32.999Z,9.83
2018-10-05T00:27:03.267Z,9.76
2018-10-05T00:29:32.185Z,9.72
2018-10-05T00:32:00.686Z,9.65
2018-10-05T00:34:29.289Z,9.57
2018-10-05T00:36:58.102Z,9.55
2018-10-05T00:39:26.621Z,9.52
2018-10-05T00:41:55.134Z,9.51
2018-10-05T00:44:23.677Z,9.51
2018-10-05T00:46:52.190Z,9.49
2018-10-05T00:49:22.308Z,9.42
2018-10-05T00:51:51.987Z,9.39
2018-10-05T00:54:20.496Z,9.42
2018-10-05T00:56:49.083Z,9.34
2018-10-05T00:59:17.698Z,9.27
2018-10-05T01:01:46.622Z,9.24
2018-10-05T01:04:15.029Z,9.31
2018-10-05T01:06:43.510Z,9.22
2018-10-05T01:09:12.034Z,9.19
2018-10-05T01:11:40.553Z,9.17
2018-10-05T01:14:09.431Z,9.14
2018-10-05T01:16:37.933Z,9.14
2018-10-05T01:19:06.458Z,9.07
2018-10-05T01:21:35.136Z,9.01
2018-10-05T01:24:05.465Z,8.97
2018-10-05T01:26:34.092Z,8.92
2018-10-05T01:29:03.703Z,8.91
2018-10-05T01:31:32.287Z,8.86
2018-10-05T01:34:00.843Z,8.81
2018-10-05T01:36:35.984Z,8.80
2018-10-05T01:39:06.034Z,8.75
2018-10-05T01:41:34.647Z,8.71
2018-10-05T01:44:05.249Z,8.68
2018-10-05T01:46:33.858Z,8.65
2018-10-05T01:49:03.950Z,8.64
2018-10-05T01:51:37.723Z,8.64
2018-10-05T01:54:07.436Z,8.75
2018-10-05T01:56:36.526Z,8.77
2018-10-05T01:59:06.462Z,8.82
2018-10-05T02:01:35.416Z,8.90
2018-10-05T02:04:05.181Z,8.95
2018-10-05T02:06:33.799Z,9.02
2018-10-05T02:09:04.665Z,9.07
2018-10-05T02:11:33.205Z,8.98
2018-10-05T02:14:05.669Z,8.93
2018-10-05T02:16:34.207Z,8.91
2018-10-05T02:19:05.971Z,8.87
2018-10-05T02:21:34.595Z,8.82
2018-10-05T02:24:04.818Z,8.77
2018-10-05T02:26:33.678Z,8.75
2018-10-05T02:29:04.048Z,8.71
2018-10-05T02:31:33.246Z,8.68
2018-10-05T02:34:03.517Z,8.63
2018-10-05T02:36:32.055Z,8.64
2018-10-05T02:39:00.544Z,8.58
2018-10-05T02:41:29.126Z,8.48
2018-10-05T02:43:57.596Z,8.45
2018-10-05T02:46:26.141Z,8.42
2018-10-05T02:48:54.682Z,8.37
2018-10-05T02:51:23.180Z,8.32
2018-10-05T02:53:51.742Z,8.25
2018-10-05T02:56:20.384Z,8.22
2018-10-05T02:58:48.902Z,8.18
2018-10-05T03:01:30.325Z,8.24
2018-10-05T03:03:59.278Z,8.17
2018-10-05T03:06:27.792Z,8.11
2018-10-05T03:08:56.493Z,8.11
2018-10-05T03:11:25.365Z,8.10
2018-10-05T03:13:53.907Z,8.10
2018-10-05T03:16:22.533Z,8.08
2018-10-05T03:18:51.417Z,8.07
2018-10-05T03:21:19.896Z,8.11
2018-10-05T03:23:48.428Z,8.02
2018-10-05T03:26:16.953Z,7.98
2018-10-05T03:28:45.482Z,7.99
2018-10-05T03:31:13.987Z,7.93
2018-10-05T03:33:42.503Z,7.94
2018-10-05T03:36:11.068Z,7.89
2018-10-05T03:38:39.600Z,7.93
2018-10-05T03:41:08.279Z,7.88
2018-10-05T03:43:36.881Z,7.87
2018-10-05T03:46:05.479Z,7.85
2018-10-05T03:48:34.064Z,7.79
2018-10-05T03:51:04.043Z,7.75
2018-10-05T03:53:32.555Z,7.79
2018-10-05T03:56:03.227Z,7.74
2018-10-05T03:58:32.140Z,7.80
2018-10-05T04:01:00.630Z,7.72
2018-10-05T04:03:29.178Z,7.65
2018-10-05T04:05:57.695Z,7.72
2018-10-05T04:08:26.566Z,7.61
2018-10-05T04:10:55.344Z,7.59
2018-10-05T04:13:23.835Z,7.56
2018-10-05T04:15:52.573Z,7.53
2018-10-05T04:18:21.073Z,7.47
2018-10-05T04:20:49.697Z,7.47
2018-10-05T04:23:18.169Z,7.45
2018-10-05T04:25:46.689Z,7.51
2018-10-05T04:28:15.334Z,7.49
2018-10-05T04:30:43.863Z,7.47
2018-10-05T04:33:12.359Z,7.44
2018-10-05T04:35:41.265Z,7.42
2018-10-05T04:38:10.076Z,7.42
2018-10-05T04:40:38.632Z,7.40
2018-10-05T04:43:07.727Z,7.42
2018-10-05T04:45:36.302Z,7.34
2018-10-05T04:48:05.148Z,7.29
2018-10-05T04:50:33.681Z,7.26
2018-10-05T04:53:03.711Z,7.25
2018-10-05T04:55:33.682Z,7.30
2018-10-05T04:58:04.149Z,7.27
2018-10-05T05:00:32.644Z,7.29
2018-10-05T05:03:02.787Z,7.23
2018-10-05T05:05:31.517Z,7.19
2018-10-05T05:08:00.466Z,7.20
2018-10-05T05:10:28.990Z,7.36
2018-10-05T05:12:57.794Z,7.34
2018-10-05T05:15:26.313Z,7.29
2018-10-05T05:17:54.890Z,7.24
2018-10-05T05:20:23.944Z,7.25
2018-10-05T05:22:52.729Z,7.29
2018-10-05T05:25:21.262Z,7.25
2018-10-05T05:27:50.300Z,7.28
2018-10-05T05:30:18.814Z,7.23
2018-10-05T05:32:47.642Z,7.29
2018-10-05T05:35:16.129Z,7.31
2018-10-05T05:37:44.630Z,7.34
2018-10-05T05:40:13.164Z,7.36
2018-10-05T05:42:41.664Z,7.39
2018-10-05T05:45:10.199Z,7.40
2018-10-05T05:47:38.827Z,7.38
2018-10-05T05:50:07.355Z,7.46
2018-10-05T05:52:35.878Z,7.45
2018-10-05T05:55:05.148Z,7.43
2018-10-05T05:57:33.784Z,7.41
2018-10-05T06:00:05.048Z,7.38
2018-10-05T06:02:33.557Z,7.41
2018-10-05T06:05:03.765Z,7.49
2018-10-05T06:07:32.277Z,7.46
2018-10-05T06:10:00.949Z,7.51
2018-10-05T06:12:29.477Z,7.57
2018-10-05T06:14:58.154Z,7.59
2018-10-05T06:17:26.651Z,7.65
2018-10-05T06:19:55.202Z,7.82
2018-10-05T06:22:23.867Z,8.07
2018-10-05T06:24:52.306Z,8.27
2018-10-05T06:27:20.861Z,8.42
2018-10-05T06:29:49.658Z,8.47
2018-10-05T06:32:18.201Z,8.59
2018-10-05T06:34:46.694Z,8.66
2018-10-05T06:37:15.322Z,8.69
2018-10-05T06:39:43.865Z,8.75
2018-10-05T06:42:12.575Z,8.74
2018-10-05T06:44:40.987Z,8.80
2018-10-05T06:47:09.772Z,8.90
2018-10-05T06:49:38.422Z,9.06
2018-10-05T06:52:07.315Z,9.19
2018-10-05T06:54:36.022Z,9.27
2018-10-05T06:57:05.281Z,9.43
2018-10-05T06:59:34.066Z,9.49
2018-10-05T07:02:03.811Z,9.53
2018-10-05T07:04:32.375Z,9.56
2018-10-05T07:07:00.943Z,9.63
2018-10-05T07:09:29.529Z,9.68
2018-10-05T07:11:58.236Z,9.76
2018-10-05T07:14:26.804Z,9.86
2018-10-05T07:16:55.324Z,9.98
2018-10-05T07:19:24.014Z,10.04
2018-10-05T07:21:53.755Z,10.08
2018-10-05T07:24:22.411Z,10.13
2018-10-05T07:26:51.053Z,10.24
2018-10-05T07:29:19.578Z,10.34
2018-10-05T07:31:48.109Z,10.41
2018-10-05T07:34:16.674Z,10.51
2018-10-05T07:36:45.240Z,10.57
2018-10-05T07:39:14.061Z,10.64
2018-10-05T07:41:43.142Z,10.77
2018-10-05T07:44:11.678Z,10.80
2018-10-05T07:46:40.208Z,10.88
2018-10-05T07:49:08.765Z,10.99
2018-10-05T07:51:37.502Z,11.14
2018-10-05T07:54:05.963Z,11.21
2018-10-05T07:56:34.553Z,11.31
2018-10-05T07:59:04.593Z,11.39
2018-10-05T08:01:33.179Z,11.44
2018-10-05T08:04:03.194Z,11.58
2018-10-05T08:06:32.699Z,11.64
2018-10-05T08:09:03.104Z,11.81
2018-10-05T08:11:31.614Z,11.89
2018-10-05T08:14:00.104Z,12.04
2018-10-05T08:16:28.649Z,12.13
2018-10-05T08:18:57.130Z,12.22
2018-10-05T08:21:25.705Z,12.50
2018-10-05T08:23:54.258Z,12.83
2018-10-05T08:26:23.039Z,12.86
2018-10-05T08:28:51.557Z,12.90
2018-10-05T08:31:20.210Z,13.08
2018-10-05T08:33:48.754Z,13.26
2018-10-05T08:36:17.247Z,13.40
2018-10-05T08:38:45.753Z,13.50
2018-10-05T08:41:14.502Z,13.61
2018-10-05T08:43:43.007Z,13.61
2018-10-05T08:46:11.545Z,13.81
2018-10-05T08:48:40.210Z,13.89
2018-10-05T08:51:08.804Z,14.02
2018-10-05T08:53:37.294Z,14.20
2018-10-05T08:56:05.811Z,14.42
2018-10-05T08:58:34.392Z,14.64
2018-10-05T09:01:04.487Z,14.68
2018-10-05T09:03:33.057Z,14.74
2018-10-05T09:06:03.095Z,14.86
2018-10-05T09:08:31.612Z,14.71
2018-10-05T09:11:00.113Z,15.10
2018-10-05T09:13:28.722Z,15.23
2018-10-05T09:15:57.242Z,14.90
2018-10-05T09:18:25.739Z,15.29
2018-10-05T09:20:54.445Z,15.46
2018-10-05T09:23:22.987Z,15.03
2018-10-05T09:25:51.484Z,15.31
2018-10-05T09:28:19.969Z,15.43
2018-10-05T09:30:48.539Z,15.54
2018-10-05T09:33:17.044Z,15.57
2018-10-05T09:35:45.790Z,15.49
2018-10-05T09:38:14.283Z,15.55
2018-10-05T09:40:42.907Z,15.86
2018-10-05T09:43:11.501Z,15.82
2018-10-05T09:45:40.022Z,15.85
2018-10-05T09:48:08.617Z,15.98
2018-10-05T09:50:37.569Z,16.14
2018-10-05T09:53:06.094Z,16.11
2018-10-05T09:55:34.625Z,16.13
2018-10-05T09:58:04.465Z,16.31
2018-10-05T10:00:38.185Z,16.67
2018-10-05T10:03:12.836Z,16.52
2018-10-05T10:05:41.392Z,16.83
2018-10-05T10:08:10.308Z,16.98
2018-10-05T10:10:39.027Z,17.08
2018-10-05T10:13:07.730Z,17.02
2018-10-05T10:15:36.261Z,17.34
2018-10-05T10:18:05.894Z,17.20
2018-10-05T10:20:34.704Z,17.38
2018-10-05T10:23:04.453Z,17.53
2018-10-05T10:25:32.951Z,17.73
2018-10-05T10:28:02.455Z,17.73
2018-10-05T10:30:31.399Z,17.62
2018-10-05T10:32:59.943Z,17.93
2018-10-05T10:35:28.455Z,17.98
2018-10-05T10:37:57.061Z,17.89
2018-10-05T10:40:25.685Z,18.13
2018-10-05T10:42:54.168Z,18.19
2018-10-05T10:45:22.681Z,17.58
2018-10-05T10:47:51.229Z,18.05
2018-10-05T10:50:19.781Z,18.32
2018-10-05T10:52:48.298Z,18.71
2018-10-05T10:55:16.924Z,18.79
2018-10-05T10:57:45.483Z,18.30
2018-10-05T11:00:14.427Z,18.30
2018-10-05T11:02:42.968Z,18.83
2018-10-05T11:05:11.551Z,18.82
2018-10-05T11:07:40.186Z,18.89
2018-10-05T11:10:08.728Z,18.59
2018-10-05T11:12:37.216Z,18.93
2018-10-05T11:15:05.993Z,18.84
2018-10-05T11:17:34.525Z,19.03
2018-10-05T11:20:05.006Z,19.33
2018-10-05T11:22:33.600Z,19.41
2018-10-05T11:25:04.090Z,19.46
2018-10-05T11:27:32.939Z,19.28
2018-10-05T11:30:03.665Z,19.28
2018-10-05T11:32:32.160Z,19.86
2018-10-05T11:35:00.823Z,19.91
2018-10-05T11:37:29.301Z,19.88
2018-10-05T11:39:57.787Z,20.07
2018-10-05T11:42:26.664Z,20.06
2018-10-05T11:44:55.163Z,20.18
2018-10-05T11:47:23.650Z,20.06
2018-10-05T11:49:52.206Z,20.38
2018-10-05T11:52:20.745Z,20.54
2018-10-05T11:54:49.256Z,20.49
2018-10-05T11:57:17.843Z,20.40
2018-10-05T11:59:46.405Z,20.13
2018-10-05T12:02:14.954Z,20.38
2018-10-05T12:04:43.508Z,21.11
2018-10-05T12:07:12.293Z,22.58
2018-10-05T12:09:40.778Z,23.23
2018-10-05T12:12:09.369Z,23.33
2018-10-05T12:14:38.171Z,22.53
2018-10-05T12:17:06.702Z,23.88
2018-10-05T12:19:35.239Z,25.06
2018-10-05T12:22:05.650Z,25.32
2018-10-05T12:24:34.220Z,24.89
2018-10-05T12:27:04.770Z,26.40
2018-10-05T12:29:33.292Z,26.75
2018-10-05T12:32:03.521Z,25.50
2018-10-05T12:34:32.081Z,24.63
2018-10-05T12:37:00.667Z,22.74
2018-10-05T12:39:29.469Z,24.42
2018-10-05T12:41:58.021Z,26.13
2018-10-05T12:44:26.626Z,27.22
2018-10-05T12:46:55.213Z,27.02
2018-10-05T12:49:23.773Z,25.73
2018-10-05T12:51:52.363Z,24.59
2018-10-05T12:54:21.013Z,24.95
2018-10-05T12:56:49.978Z,24.94
2018-10-05T12:59:18.487Z,25.72
2018-10-05T13:01:47.061Z,27.69
2018-10-05T13:04:15.621Z,26.69
2018-10-05T13:06:44.165Z,23.58
2018-10-05T13:09:12.721Z,25.69
2018-10-05T13:11:41.266Z,23.58
2018-10-05T13:14:09.936Z,23.40
2018-10-05T13:16:38.483Z,22.82
2018-10-05T13:19:07.301Z,25.63
2018-10-05T13:21:36.501Z,27.05
2018-10-05T13:24:05.561Z,28.15
2018-10-05T13:26:34.572Z,27.47
2018-10-05T13:29:04.667Z,28.40
2018-10-05T13:31:33.781Z,28.05
2018-10-05T13:34:05.029Z,28.61
2018-10-05T13:36:33.542Z,25.97
2018-10-05T13:39:04.942Z,26.93
2018-10-05T13:41:33.482Z,25.46
2018-10-05T13:44:03.144Z,24.28
2018-10-05T13:46:32.474Z,24.27
2018-10-05T13:49:03.818Z,23.68
2018-10-05T13:51:35.475Z,24.78
2018-10-05T13:54:06.487Z,24.29
2018-10-05T13:56:35.373Z,24.32
2018-10-05T13:59:05.762Z,24.02
2018-10-05T14:01:34.662Z,23.90
2018-10-05T14:04:06.035Z,26.93
2018-10-05T14:06:34.654Z,25.29
2018-10-05T14:09:07.007Z,25.54
2018-10-05T14:11:35.736Z,26.21
2018-10-05T14:14:08.699Z,27.98
2018-10-05T14:16:37.249Z,28.41
2018-10-05T14:19:06.578Z,26.50
2018-10-05T14:21:35.253Z,28.11
2018-10-05T14:24:05.431Z,27.22
2018-10-05T14:26:34.375Z,28.30
2018-10-05T14:29:04.895Z,26.97
2018-10-05T14:31:33.447Z,28.64
2018-10-05T14:34:03.854Z,26.51
2018-10-05T14:36:32.401Z,27.91
2018-10-05T14:39:00.993Z,26.92
2018-10-05T14:41:29.570Z,25.82
2018-10-05T14:43:58.095Z,25.53
2018-10-05T14:46:26.619Z,26.49
2018-10-05T14:48:55.169Z,29.19
2018-10-05T14:51:23.742Z,26.61
2018-10-05T14:53:52.250Z,25.45
2018-10-05T14:56:20.804Z,25.12
2018-10-05T14:58:49.336Z,24.87
2018-10-05T15:01:18.021Z,24.16
2018-10-05T15:03:46.796Z,25.63
2018-10-05T15:06:15.389Z,25.48
2018-10-05T15:08:43.968Z,23.64
2018-10-05T15:11:12.526Z,23.27
2018-10-05T15:13:41.063Z,23.05
2018-10-05T15:16:09.721Z,23.37
2018-10-05T15:18:38.222Z,22.50
2018-10-05T15:21:06.859Z,22.29
2018-10-05T15:23:35.436Z,22.05
2018-10-05T15:26:05.640Z,22.09
2018-10-05T15:28:34.615Z,22.03
2018-10-05T15:31:04.984Z,22.18
2018-10-05T15:33:33.536Z,21.92
2018-10-05T15:36:04.628Z,21.77
2018-10-05T15:38:33.146Z,22.10
2018-10-05T15:41:03.021Z,21.93
2018-10-05T15:43:31.601Z,22.08
2018-10-05T15:46:07.265Z,21.86
2018-10-05T15:48:36.061Z,21.61
2018-10-05T15:51:06.399Z,21.44
2018-10-05T15:53:35.367Z,21.66
2018-10-05T15:56:07.842Z,21.55
2018-10-05T15:58:36.365Z,21.64
2018-10-05T16:01:05.125Z,21.38
2018-10-05T16:03:33.647Z,21.03
2018-10-05T16:06:04.183Z,21.07
2018-10-05T16:08:32.754Z,21.19
2018-10-05T16:11:02.815Z,21.15
2018-10-05T16:13:31.384Z,21.06
2018-10-05T16:15:59.904Z,21.03
2018-10-05T16:18:28.511Z,21.48
2018-10-05T16:20:57.101Z,21.88
2018-10-05T16:23:25.633Z,21.95
2018-10-05T16:25:54.270Z,22.23
2018-10-05T16:28:22.832Z,22.20
2018-10-05T16:30:51.435Z,21.81
2018-10-05T16:33:19.994Z,21.22
2018-10-05T16:35:48.508Z,20.59
2018-10-05T16:38:17.110Z,20.45
2018-10-05T16:40:45.636Z,20.19
2018-10-05T16:43:14.150Z,19.69
2018-10-05T16:45:42.666Z,19.28
2018-10-05T16:48:12.052Z,19.11
2018-10-05T16:50:40.589Z,18.84
2018-10-05T16:53:09.171Z,18.50
2018-10-05T16:55:37.659Z,18.24
2018-10-05T16:58:06.764Z,17.90
2018-10-05T17:00:35.327Z,17.67
2018-10-05T17:03:06.279Z,17.53
2018-10-05T17:05:34.923Z,17.31
2018-10-05T17:08:05.303Z,17.01
2018-10-05T17:10:33.967Z,16.85
2018-10-05T17:13:04.917Z,16.73
2018-10-05T17:15:33.434Z,16.63
2018-10-05T17:18:05.525Z,16.44
2018-10-05T17:20:34.866Z,16.13
2018-10-05T17:23:05.366Z,15.92
2018-10-05T17:25:33.929Z,15.68
2018-10-05T17:28:03.895Z,15.50
2018-10-05T17:30:32.492Z,15.32
2018-10-05T17:33:02.938Z,15.16
2018-10-05T17:35:31.481Z,15.06
2018-10-05T17:38:00.009Z,14.97
2018-10-05T17:40:28.524Z,14.89
2018-10-05T17:42:57.140Z,14.80
2018-10-05T17:45:25.629Z,14.74
2018-10-05T17:47:54.185Z,14.64
2018-10-05T17:50:22.803Z,14.51
2018-10-05T17:52:51.705Z,14.42
2018-10-05T17:55:20.605Z,14.25
2018-10-05T17:57:49.093Z,14.13
2018-10-05T18:00:17.616Z,14.04
2018-10-05T18:02:46.952Z,14.09
2018-10-05T18:05:15.495Z,14.07
2018-10-05T18:07:43.997Z,14.03
2018-10-05T18:10:12.624Z,13.94
2018-10-05T18:12:41.150Z,13.80
2018-10-05T18:15:09.873Z,13.75
2018-10-05T18:17:38.401Z,13.83
2018-10-05T18:20:07.289Z,13.61
2018-10-05T18:22:35.859Z,13.50
2018-10-05T18:25:05.351Z,13.45
2018-10-05T18:27:33.885Z,13.28
2018-10-05T18:30:05.003Z,13.14
2018-10-05T18:32:33.549Z,13.08
2018-10-05T18:35:03.971Z,12.96
2018-10-05T18:37:32.548Z,12.85
2018-10-05T18:40:02.665Z,12.91
2018-10-05T18:42:31.316Z,12.80
2018-10-05T18:44:59.853Z,12.68
2018-10-05T18:47:28.651Z,12.61
2018-10-05T18:49:57.168Z,12.49
2018-10-05T18:52:25.701Z,12.55
2018-10-05T18:54:54.570Z,12.41
2018-10-05T18:57:24.040Z,12.50
2018-10-05T18:59:52.624Z,12.53
2018-10-05T19:02:21.540Z,12.48
2018-10-05T19:04:50.466Z,12.40
2018-10-05T19:07:19.074Z,12.33
2018-10-05T19:09:47.970Z,12.36
2018-10-05T19:12:16.515Z,12.25
2018-10-05T19:14:45.155Z,12.17
2018-10-05T19:17:13.705Z,12.17
2018-10-05T19:19:42.241Z,12.26
2018-10-05T19:22:12.014Z,12.29
2018-10-05T19:24:40.540Z,12.30
2018-10-05T19:27:09.137Z,12.20
2018-10-05T19:29:37.742Z,12.34
2018-10-05T19:32:06.425Z,12.39
2018-10-05T19:34:34.975Z,12.29
2018-10-05T19:37:05.186Z,12.40
2018-10-05T19:39:33.740Z,12.49
2018-10-05T19:42:04.194Z,12.35
2018-10-05T19:44:32.737Z,12.22
2018-10-05T19:47:02.479Z,12.15
2018-10-05T19:49:31.068Z,11.98
2018-10-05T19:51:59.659Z,11.86
2018-10-05T19:54:28.284Z,11.76
2018-10-05T19:56:56.872Z,11.64
2018-10-05T19:59:25.425Z,11.55
2018-10-05T20:01:54.025Z,11.43
2018-10-05T20:04:22.664Z,11.39
2018-10-05T20:06:51.464Z,11.31
2018-10-05T20:09:20.016Z,11.27
2018-10-05T20:11:48.634Z,11.22
2018-10-05T20:14:17.420Z,11.15
2018-10-05T20:16:46.090Z,11.10
2018-10-05T20:19:14.878Z,11.03
2018-10-05T20:21:43.439Z,10.96
2018-10-05T20:24:12.056Z,10.99
2018-10-05T20:26:40.835Z,10.96
2018-10-05T20:29:09.452Z,10.99
2018-10-05T20:31:38.000Z,10.93
2018-10-05T20:34:08.817Z,10.88
2018-10-05T20:36:37.645Z,10.82
2018-10-05T20:39:07.240Z,10.76
2018-10-05T20:41:36.649Z,10.71
2018-10-05T20:44:05.671Z,10.68
2018-10-05T20:46:35.592Z,10.68
2018-10-05T20:49:05.850Z,10.62
2018-10-05T20:51:34.397Z,10.53
2018-10-05T20:54:05.537Z,10.49
2018-10-05T20:56:34.071Z,10.40
2018-10-05T20:59:04.062Z,10.36
2018-10-05T21:01:32.680Z,10.33
2018-10-05T21:04:02.840Z,10.26
2018-10-05T21:06:31.359Z,10.20
2018-10-05T21:08:59.905Z,10.26
2018-10-05T21:11:28.895Z,10.23
2018-10-05T21:13:57.786Z,10.25
2018-10-05T21:16:26.309Z,10.16
2018-10-05T21:18:55.027Z,10.26
2018-10-05T21:21:23.539Z,10.35
2018-10-05T21:23:52.067Z,10.26
2018-10-05T21:26:20.646Z,10.29
2018-10-05T21:28:49.159Z,10.17
2018-10-05T21:31:17.704Z,10.14
2018-10-05T21:33:46.245Z,10.09
2018-10-05T21:36:14.843Z,10.05
2018-10-05T21:38:43.399Z,9.99
2018-10-05T21:41:12.162Z,10.03
2018-10-05T21:43:40.680Z,10.00
2018-10-05T21:46:09.312Z,9.89
2018-10-05T21:48:38.098Z,9.85
2018-10-05T21:51:06.657Z,9.82
2018-10-05T21:53:35.159Z,9.81
2018-10-05T21:56:04.857Z,9.76
2018-10-05T21:58:34.935Z,9.67
2018-10-05T22:01:05.208Z,9.61
2018-10-05T22:03:33.749Z,9.58
2018-10-05T22:06:03.678Z,9.64
2018-10-05T22:08:32.262Z,9.60
2018-10-05T22:11:00.793Z,9.55
2018-10-05T22:13:29.322Z,9.54
2018-10-05T22:15:57.861Z,9.54
2018-10-05T22:18:26.642Z,9.46
2018-10-05T22:20:55.170Z,9.50
2018-10-05T22:23:23.830Z,9.51
2018-10-05T22:25:52.394Z,9.52
2018-10-05T22:28:20.931Z,9.46
2018-10-05T22:30:49.478Z,9.40
2018-10-05T22:33:17.969Z,9.35
2018-10-05T22:35:46.513Z,9.24
2018-10-05T22:38:15.012Z,9.35
2018-10-05T22:40:43.985Z,9.28
2018-10-05T22:43:12.557Z,9.25
2018-10-05T22:45:41.072Z,9.17
2018-10-05T22:48:10.233Z,9.18
2018-10-05T22:50:39.280Z,9.31
2018-10-05T22:53:07.789Z,9.29
2018-10-05T22:55:36.383Z,9.17
2018-10-05T22:58:05.999Z,9.08
2018-10-05T23:00:34.586Z,9.11
2018-10-05T23:03:04.515Z,9.01
2018-10-05T23:05:33.080Z,9.04
2018-10-05T23:08:03.376Z,9.04
2018-10-05T23:10:31.952Z,9.03
2018-10-05T23:13:00.494Z,8.99
2018-10-05T23:15:29.044Z,8.89
2018-10-05T23:17:57.573Z,8.90
2018-10-05T23:20:26.156Z,8.89
2018-10-05T23:22:54.659Z,8.83
2018-10-05T23:25:23.188Z,8.83
2018-10-05T23:27:51.731Z,8.78
2018-10-05T23:30:20.524Z,8.73
2018-10-05T23:32:49.023Z,8.68
2018-10-05T23:35:18.106Z,8.70
2018-10-05T23:37:46.688Z,8.72
2018-10-05T23:40:15.169Z,8.75
2018-10-05T23:42:43.646Z,8.68
2018-10-05T23:45:12.301Z,8.70
2018-10-05T23:47:40.915Z,8.66
2018-10-05T23:50:09.436Z,8.67
2018-10-05T23:52:48.610Z,8.70
2018-10-05T23:55:17.180Z,8.66
2018-10-05T23:57:45.872Z,8.60
